sensor_id;sensor_type;location;lat;lon;timestamp;temperature;humidity
11820;DHT22;5967;48.944;9.240;2022-10-04T00:00:50;8.00;99.90
11820;DHT22;5967;48.944;9.240;2022-10-04T00:03:22;7.90;99.90
11820;DHT22;5967;48.944;9.240;2022-10-04T00:05:52;7.90;99.90
11820;DHT22;5967;48.944;9.240;2022-10-04T00:08:51;7.90;99.90
11820;DHT22;5967;48.944;9.240;2022-10-04T00:11:19;7.90;99.90
11820;DHT22;5967;48.944;9.240;2022-10-04T00:13:53;7.90;99.90
11820;DHT22;5967;48.944;9.240;2022-10-04T00:16:40;8.10;99.90
11820;DHT22;5967;48.944;9.240;2022-10-04T00:24:30;7.80;99.90
11820;DHT22;5967;48.944;9.240;2022-10-04T00:27:29;7.70;99.90
11820;DHT22;5967;48.944;9.240;2022-10-04T00:34:53;7.60;99.90
11820;DHT22;5967;48.944;9.240;2022-10-04T00:37:20;7.50;99.90
11820;DHT22;5967;48.944;9.240;2022-10-04T00:39:57;7.40;99.90
11820;DHT22;5967;48.944;9.240;2022-10-04T00:51:09;7.10;99.90
11820;DHT22;5967;48.944;9.240;2022-10-04T00:56:40;7.10;99.90
11820;DHT22;5967;48.944;9.240;2022-10-04T00:59:28;7.20;99.90
11820;DHT22;5967;48.944;9.240;2022-10-04T01:02:21;7.10;99.90
11820;DHT22;5967;48.944;9.240;2022-10-04T01:07:21;7.00;99.90
11820;DHT22;5967;48.944;9.240;2022-10-04T01:09:54;6.90;99.90
11820;DHT22;5967;48.944;9.240;2022-10-04T01:13:12;6.90;99.90
11820;DHT22;5967;48.944;9.240;2022-10-04T01:15:28;7.00;99.90
11820;DHT22;5967;48.944;9.240;2022-10-04T01:29:14;6.80;99.90
11820;DHT22;5967;48.944;9.240;2022-10-04T01:31:45;6.70;99.90
11820;DHT22;5967;48.944;9.240;2022-10-04T01:34:17;6.70;99.90
11820;DHT22;5967;48.944;9.240;2022-10-04T01:36:43;6.70;99.90
11820;DHT22;5967;48.944;9.240;2022-10-04T01:39:12;6.70;99.90
11820;DHT22;5967;48.944;9.240;2022-10-04T01:41:49;6.70;99.90
11820;DHT22;5967;48.944;9.240;2022-10-04T01:46:51;6.80;99.90
11820;DHT22;5967;48.944;9.240;2022-10-04T01:49:20;6.90;99.90
11820;DHT22;5967;48.944;9.240;2022-10-04T01:51:59;6.90;99.90
11820;DHT22;5967;48.944;9.240;2022-10-04T01:54:32;6.90;99.90
11820;DHT22;5967;48.944;9.240;2022-10-04T01:57:11;6.90;99.90
11820;DHT22;5967;48.944;9.240;2022-10-04T01:59:53;6.80;99.90
11820;DHT22;5967;48.944;9.240;2022-10-04T02:04:57;6.80;99.90
11820;DHT22;5967;48.944;9.240;2022-10-04T02:07:26;6.60;99.90
11820;DHT22;5967;48.944;9.240;2022-10-04T02:09:58;6.70;99.90
11820;DHT22;5967;48.944;9.240;2022-10-04T02:12:25;6.60;99.90
11820;DHT22;5967;48.944;9.240;2022-10-04T02:14:53;6.70;99.90
11820;DHT22;5967;48.944;9.240;2022-10-04T02:17:23;6.70;99.90
11820;DHT22;5967;48.944;9.240;2022-10-04T02:19:50;6.70;99.90
11820;DHT22;5967;48.944;9.240;2022-10-04T02:22:17;6.70;99.90
11820;DHT22;5967;48.944;9.240;2022-10-04T02:24:46;6.70;99.90
11820;DHT22;5967;48.944;9.240;2022-10-04T02:27:13;6.70;99.90
11820;DHT22;5967;48.944;9.240;2022-10-04T02:29:39;6.70;99.90
11820;DHT22;5967;48.944;9.240;2022-10-04T02:32:06;6.70;99.90
11820;DHT22;5967;48.944;9.240;2022-10-04T02:34:51;6.80;99.90
11820;DHT22;5967;48.944;9.240;2022-10-04T02:37:23;6.70;99.90
11820;DHT22;5967;48.944;9.240;2022-10-04T02:40:18;6.70;99.90
11820;DHT22;5967;48.944;9.240;2022-10-04T02:42:55;6.70;99.90
11820;DHT22;5967;48.944;9.240;2022-10-04T02:45:41;6.60;99.90
11820;DHT22;5967;48.944;9.240;2022-10-04T02:48:35;6.60;99.90
11820;DHT22;5967;48.944;9.240;2022-10-04T02:51:13;6.60;99.90
11820;DHT22;5967;48.944;9.240;2022-10-04T02:54:00;6.60;99.90
11820;DHT22;5967;48.944;9.240;2022-10-04T02:56:27;6.60;99.90
11820;DHT22;5967;48.944;9.240;2022-10-04T02:58:54;6.60;99.90
11820;DHT22;5967;48.944;9.240;2022-10-04T03:01:26;6.50;99.90
11820;DHT22;5967;48.944;9.240;2022-10-04T03:03:54;6.50;99.90
11820;DHT22;5967;48.944;9.240;2022-10-04T03:06:21;6.50;99.90
11820;DHT22;5967;48.944;9.240;2022-10-04T03:08:51;6.50;99.90
11820;DHT22;5967;48.944;9.240;2022-10-04T03:11:20;6.50;99.90
11820;DHT22;5967;48.944;9.240;2022-10-04T03:13:49;6.40;99.90
11820;DHT22;5967;48.944;9.240;2022-10-04T03:16:17;6.30;99.90
11820;DHT22;5967;48.944;9.240;2022-10-04T03:18:44;6.40;99.90
11820;DHT22;5967;48.944;9.240;2022-10-04T03:21:13;6.40;99.90
11820;DHT22;5967;48.944;9.240;2022-10-04T03:23:41;6.50;99.90
11820;DHT22;5967;48.944;9.240;2022-10-04T03:26:25;6.40;99.90
11820;DHT22;5967;48.944;9.240;2022-10-04T03:28:54;6.30;99.90
11820;DHT22;5967;48.944;9.240;2022-10-04T03:31:19;6.30;99.90
11820;DHT22;5967;48.944;9.240;2022-10-04T03:33:46;6.30;99.90
11820;DHT22;5967;48.944;9.240;2022-10-04T03:36:13;6.20;99.90
11820;DHT22;5967;48.944;9.240;2022-10-04T03:38:42;6.20;99.90
11820;DHT22;5967;48.944;9.240;2022-10-04T03:41:09;6.20;99.90
11820;DHT22;5967;48.944;9.240;2022-10-04T03:43:41;6.20;99.90
11820;DHT22;5967;48.944;9.240;2022-10-04T03:46:09;6.20;99.90
11820;DHT22;5967;48.944;9.240;2022-10-04T03:48:42;6.20;99.90
11820;DHT22;5967;48.944;9.240;2022-10-04T03:51:14;6.20;99.90
11820;DHT22;5967;48.944;9.240;2022-10-04T03:53:45;6.10;99.90
11820;DHT22;5967;48.944;9.240;2022-10-04T03:56:16;6.00;99.90
11820;DHT22;5967;48.944;9.240;2022-10-04T03:58:44;6.00;99.90
11820;DHT22;5967;48.944;9.240;2022-10-04T04:04:12;6.00;99.90
11820;DHT22;5967;48.944;9.240;2022-10-04T04:07:02;6.00;99.90
11820;DHT22;5967;48.944;9.240;2022-10-04T04:10:00;6.00;99.90
11820;DHT22;5967;48.944;9.240;2022-10-04T04:14:59;6.10;99.90
11820;DHT22;5967;48.944;9.240;2022-10-04T04:19:58;6.10;99.90
11820;DHT22;5967;48.944;9.240;2022-10-04T04:22:25;6.10;99.90
11820;DHT22;5967;48.944;9.240;2022-10-04T04:25:03;6.10;99.90
11820;DHT22;5967;48.944;9.240;2022-10-04T04:27:35;6.10;99.90
11820;DHT22;5967;48.944;9.240;2022-10-04T04:30:03;6.10;99.90
11820;DHT22;5967;48.944;9.240;2022-10-04T04:32:37;6.00;99.90
11820;DHT22;5967;48.944;9.240;2022-10-04T04:35:05;6.00;99.90
11820;DHT22;5967;48.944;9.240;2022-10-04T04:37:37;6.00;99.90
11820;DHT22;5967;48.944;9.240;2022-10-04T04:40:23;5.90;99.90
11820;DHT22;5967;48.944;9.240;2022-10-04T04:42:50;5.90;99.90
11820;DHT22;5967;48.944;9.240;2022-10-04T04:45:19;5.90;99.90
11820;DHT22;5967;48.944;9.240;2022-10-04T04:47:51;5.90;99.90
11820;DHT22;5967;48.944;9.240;2022-10-04T04:50:35;5.90;99.90
11820;DHT22;5967;48.944;9.240;2022-10-04T04:53:23;5.90;99.90
11820;DHT22;5967;48.944;9.240;2022-10-04T04:56:01;5.90;99.90
11820;DHT22;5967;48.944;9.240;2022-10-04T04:58:30;5.90;99.90
11820;DHT22;5967;48.944;9.240;2022-10-04T05:01:00;5.90;99.90
11820;DHT22;5967;48.944;9.240;2022-10-04T05:03:27;5.90;99.90
11820;DHT22;5967;48.944;9.240;2022-10-04T05:05:58;5.80;99.90
11820;DHT22;5967;48.944;9.240;2022-10-04T05:08:30;5.80;99.90
11820;DHT22;5967;48.944;9.240;2022-10-04T05:11:12;5.80;99.90
11820;DHT22;5967;48.944;9.240;2022-10-04T05:13:54;5.80;99.90
11820;DHT22;5967;48.944;9.240;2022-10-04T05:16:41;5.80;99.90
11820;DHT22;5967;48.944;9.240;2022-10-04T05:19:15;5.80;99.90
11820;DHT22;5967;48.944;9.240;2022-10-04T05:21:44;5.90;99.90
11820;DHT22;5967;48.944;9.240;2022-10-04T05:24:35;5.70;99.90
11820;DHT22;5967;48.944;9.240;2022-10-04T05:27:14;5.90;99.90
11820;DHT22;5967;48.944;9.240;2022-10-04T05:30:13;5.90;99.90
11820;DHT22;5967;48.944;9.240;2022-10-04T05:33:02;6.00;99.90
11820;DHT22;5967;48.944;9.240;2022-10-04T05:36:29;6.00;99.90
11820;DHT22;5967;48.944;9.240;2022-10-04T05:41:15;6.10;99.90
11820;DHT22;5967;48.944;9.240;2022-10-04T05:43:46;6.10;99.90
11820;DHT22;5967;48.944;9.240;2022-10-04T05:46:32;6.10;99.90
11820;DHT22;5967;48.944;9.240;2022-10-04T05:49:07;6.10;99.90
11820;DHT22;5967;48.944;9.240;2022-10-04T05:54:13;6.30;99.90
11820;DHT22;5967;48.944;9.240;2022-10-04T05:59:58;6.40;99.90
11820;DHT22;5967;48.944;9.240;2022-10-04T06:08:38;6.50;99.90
11820;DHT22;5967;48.944;9.240;2022-10-04T06:19:30;6.70;99.90
11820;DHT22;5967;48.944;9.240;2022-10-04T06:22:18;6.70;99.90
11820;DHT22;5967;48.944;9.240;2022-10-04T06:25:00;6.70;99.90
11820;DHT22;5967;48.944;9.240;2022-10-04T06:27:42;6.80;99.90
11820;DHT22;5967;48.944;9.240;2022-10-04T06:30:14;6.80;99.90
11820;DHT22;5967;48.944;9.240;2022-10-04T06:32:56;6.80;99.90
11820;DHT22;5967;48.944;9.240;2022-10-04T06:46:31;7.20;99.90
11820;DHT22;5967;48.944;9.240;2022-10-04T06:52:06;7.30;99.90
11820;DHT22;5967;48.944;9.240;2022-10-04T06:55:04;7.40;99.90
11820;DHT22;5967;48.944;9.240;2022-10-04T06:58:09;7.40;99.90
11820;DHT22;5967;48.944;9.240;2022-10-04T07:00:51;7.50;99.90
11820;DHT22;5967;48.944;9.240;2022-10-04T07:03:26;7.60;99.90
11820;DHT22;5967;48.944;9.240;2022-10-04T07:06:04;7.60;99.90
11820;DHT22;5967;48.944;9.240;2022-10-04T07:08:40;7.70;99.90
11820;DHT22;5967;48.944;9.240;2022-10-04T07:11:49;7.70;99.90
11820;DHT22;5967;48.944;9.240;2022-10-04T07:14:22;7.80;99.90
11820;DHT22;5967;48.944;9.240;2022-10-04T07:17:02;7.90;99.90
11820;DHT22;5967;48.944;9.240;2022-10-04T07:19:38;8.00;99.90
11820;DHT22;5967;48.944;9.240;2022-10-04T07:27:19;8.10;99.90
11820;DHT22;5967;48.944;9.240;2022-10-04T07:29:53;8.10;99.90
11820;DHT22;5967;48.944;9.240;2022-10-04T07:32:24;8.10;99.90
11820;DHT22;5967;48.944;9.240;2022-10-04T07:35:04;8.10;99.90
11820;DHT22;5967;48.944;9.240;2022-10-04T07:38:33;8.10;99.90
11820;DHT22;5967;48.944;9.240;2022-10-04T07:46:31;8.30;99.90
11820;DHT22;5967;48.944;9.240;2022-10-04T07:49:01;8.40;99.90
11820;DHT22;5967;48.944;9.240;2022-10-04T07:51:44;8.50;99.90
11820;DHT22;5967;48.944;9.240;2022-10-04T07:54:39;8.70;99.90
11820;DHT22;5967;48.944;9.240;2022-10-04T07:57:16;8.90;99.90
11820;DHT22;5967;48.944;9.240;2022-10-04T07:59:52;9.00;99.90
11820;DHT22;5967;48.944;9.240;2022-10-04T08:02:52;9.20;99.90
11820;DHT22;5967;48.944;9.240;2022-10-04T08:11:02;9.50;99.90
11820;DHT22;5967;48.944;9.240;2022-10-04T08:13:50;9.60;99.90
11820;DHT22;5967;48.944;9.240;2022-10-04T08:16:32;9.70;99.90
11820;DHT22;5967;48.944;9.240;2022-10-04T08:21:56;9.80;99.90
11820;DHT22;5967;48.944;9.240;2022-10-04T08:27:34;9.80;99.90
11820;DHT22;5967;48.944;9.240;2022-10-04T08:30:14;9.80;99.90
11820;DHT22;5967;48.944;9.240;2022-10-04T08:35:38;9.90;99.90
11820;DHT22;5967;48.944;9.240;2022-10-04T08:55:10;10.80;99.90
11820;DHT22;5967;48.944;9.240;2022-10-04T09:03:22;11.20;99.90
11820;DHT22;5967;48.944;9.240;2022-10-04T09:19:36;12.00;99.90
11820;DHT22;5967;48.944;9.240;2022-10-04T09:27:53;12.40;99.90
11820;DHT22;5967;48.944;9.240;2022-10-04T09:34:01;12.60;99.90
11820;DHT22;5967;48.944;9.240;2022-10-04T09:47:54;13.10;99.90
11820;DHT22;5967;48.944;9.240;2022-10-04T10:05:29;13.50;99.90
11820;DHT22;5967;48.944;9.240;2022-10-04T10:17:00;14.00;99.90
11820;DHT22;5967;48.944;9.240;2022-10-04T10:31:09;14.40;99.90
11820;DHT22;5967;48.944;9.240;2022-10-04T10:45:14;14.60;99.90
11820;DHT22;5967;48.944;9.240;2022-10-04T10:50:33;14.80;99.90
11820;DHT22;5967;48.944;9.240;2022-10-04T11:13:27;15.50;99.90
11820;DHT22;5967;48.944;9.240;2022-10-04T11:24:57;15.90;99.90
11820;DHT22;5967;48.944;9.240;2022-10-04T11:27:48;16.00;99.90
11820;DHT22;5967;48.944;9.240;2022-10-04T11:36:28;16.50;99.90
11820;DHT22;5967;48.944;9.240;2022-10-04T11:39:37;16.60;99.90
11820;DHT22;5967;48.944;9.240;2022-10-04T11:42:10;16.80;99.90
11820;DHT22;5967;48.944;9.240;2022-10-04T11:56:51;16.90;99.90
11820;DHT22;5967;48.944;9.240;2022-10-04T11:59:44;16.90;99.90
11820;DHT22;5967;48.944;9.240;2022-10-04T12:02:25;16.90;99.90
11820;DHT22;5967;48.944;9.240;2022-10-04T12:14:36;17.10;99.90
11820;DHT22;5967;48.944;9.240;2022-10-04T12:31:30;17.00;99.90
11820;DHT22;5967;48.944;9.240;2022-10-04T12:37:24;16.90;99.90
11820;DHT22;5967;48.944;9.240;2022-10-04T12:59:53;17.20;99.90
11820;DHT22;5967;48.944;9.240;2022-10-04T13:02:27;17.10;99.90
11820;DHT22;5967;48.944;9.240;2022-10-04T13:05:04;17.10;99.90
11820;DHT22;5967;48.944;9.240;2022-10-04T13:19:37;17.30;99.90
11820;DHT22;5967;48.944;9.240;2022-10-04T13:22:32;17.30;99.90
11820;DHT22;5967;48.944;9.240;2022-10-04T13:28:16;17.40;99.90
11820;DHT22;5967;48.944;9.240;2022-10-04T13:33:40;17.50;99.90
11820;DHT22;5967;48.944;9.240;2022-10-04T13:36:24;17.50;99.90
11820;DHT22;5967;48.944;9.240;2022-10-04T13:39:35;17.50;99.90
11820;DHT22;5967;48.944;9.240;2022-10-04T13:45:14;17.50;99.90
11820;DHT22;5967;48.944;9.240;2022-10-04T13:53:08;17.70;99.90
11820;DHT22;5967;48.944;9.240;2022-10-04T13:56:01;17.70;99.90
11820;DHT22;5967;48.944;9.240;2022-10-04T13:59:03;17.70;99.90
11820;DHT22;5967;48.944;9.240;2022-10-04T14:09:54;17.70;99.90
11820;DHT22;5967;48.944;9.240;2022-10-04T14:18:21;17.70;99.90
11820;DHT22;5967;48.944;9.240;2022-10-04T14:24:38;17.70;99.90
11820;DHT22;5967;48.944;9.240;2022-10-04T14:39:05;17.80;99.90
11820;DHT22;5967;48.944;9.240;2022-10-04T14:41:51;17.80;99.90
11820;DHT22;5967;48.944;9.240;2022-10-04T14:44:55;17.90;99.90
11820;DHT22;5967;48.944;9.240;2022-10-04T14:50:28;17.90;99.90
11820;DHT22;5967;48.944;9.240;2022-10-04T14:53:34;17.90;99.90
11820;DHT22;5967;48.944;9.240;2022-10-04T14:56:18;18.00;99.90
11820;DHT22;5967;48.944;9.240;2022-10-04T15:07:31;17.80;99.90
11820;DHT22;5967;48.944;9.240;2022-10-04T15:10:12;17.80;99.90
11820;DHT22;5967;48.944;9.240;2022-10-04T15:13:02;17.70;99.90
11820;DHT22;5967;48.944;9.240;2022-10-04T15:15:39;17.70;99.90
11820;DHT22;5967;48.944;9.240;2022-10-04T15:38:12;17.50;99.90
11820;DHT22;5967;48.944;9.240;2022-10-04T16:03:38;17.20;99.90
11820;DHT22;5967;48.944;9.240;2022-10-04T16:06:31;17.20;99.90
11820;DHT22;5967;48.944;9.240;2022-10-04T16:09:26;17.10;99.90
11820;DHT22;5967;48.944;9.240;2022-10-04T16:20:35;16.90;99.90
11820;DHT22;5967;48.944;9.240;2022-10-04T16:23:25;16.80;99.90
11820;DHT22;5967;48.944;9.240;2022-10-04T16:32:08;16.60;99.90
11820;DHT22;5967;48.944;9.240;2022-10-04T16:34:46;16.50;99.90
11820;DHT22;5967;48.944;9.240;2022-10-04T16:45:43;16.20;99.90
11820;DHT22;5967;48.944;9.240;2022-10-04T16:51:22;16.00;99.90
11820;DHT22;5967;48.944;9.240;2022-10-04T17:02:35;15.80;99.90
11820;DHT22;5967;48.944;9.240;2022-10-04T17:05:43;15.70;99.90
11820;DHT22;5967;48.944;9.240;2022-10-04T17:35:30;14.90;99.90
11820;DHT22;5967;48.944;9.240;2022-10-04T17:38:08;14.80;99.90
11820;DHT22;5967;48.944;9.240;2022-10-04T17:40:53;14.80;99.90
11820;DHT22;5967;48.944;9.240;2022-10-04T17:44:03;14.80;99.90
11820;DHT22;5967;48.944;9.240;2022-10-04T17:46:20;14.80;99.90
11820;DHT22;5967;48.944;9.240;2022-10-04T17:49:20;14.70;99.90
11820;DHT22;5967;48.944;9.240;2022-10-04T17:52:20;14.70;99.90
11820;DHT22;5967;48.944;9.240;2022-10-04T17:55:28;14.60;99.90
11820;DHT22;5967;48.944;9.240;2022-10-04T17:58:16;14.50;99.90
11820;DHT22;5967;48.944;9.240;2022-10-04T18:03:37;14.40;99.90
11820;DHT22;5967;48.944;9.240;2022-10-04T18:06:40;14.40;99.90
11820;DHT22;5967;48.944;9.240;2022-10-04T18:11:40;14.30;99.90
11820;DHT22;5967;48.944;9.240;2022-10-04T18:17:03;14.10;99.90
11820;DHT22;5967;48.944;9.240;2022-10-04T18:22:19;14.10;99.90
11820;DHT22;5967;48.944;9.240;2022-10-04T18:24:47;14.10;99.90
11820;DHT22;5967;48.944;9.240;2022-10-04T18:38:29;13.80;99.90
11820;DHT22;5967;48.944;9.240;2022-10-04T18:41:19;13.80;99.90
11820;DHT22;5967;48.944;9.240;2022-10-04T18:46:24;13.70;99.90
11820;DHT22;5967;48.944;9.240;2022-10-04T18:49:17;13.70;99.90
11820;DHT22;5967;48.944;9.240;2022-10-04T19:05:45;13.40;99.90
11820;DHT22;5967;48.944;9.240;2022-10-04T19:11:22;13.30;99.90
11820;DHT22;5967;48.944;9.240;2022-10-04T19:14:09;13.20;99.90
11820;DHT22;5967;48.944;9.240;2022-10-04T19:16:55;13.20;99.90
11820;DHT22;5967;48.944;9.240;2022-10-04T19:25:36;13.10;99.90
11820;DHT22;5967;48.944;9.240;2022-10-04T19:28:06;13.00;99.90
11820;DHT22;5967;48.944;9.240;2022-10-04T19:33:50;13.00;99.90
11820;DHT22;5967;48.944;9.240;2022-10-04T19:36:29;13.00;99.90
11820;DHT22;5967;48.944;9.240;2022-10-04T19:42:10;12.90;99.90
11820;DHT22;5967;48.944;9.240;2022-10-04T19:47:53;12.90;99.90
11820;DHT22;5967;48.944;9.240;2022-10-04T19:53:19;12.80;99.90
11820;DHT22;5967;48.944;9.240;2022-10-04T19:58:42;12.70;99.90
11820;DHT22;5967;48.944;9.240;2022-10-04T20:01:14;12.70;99.90
11820;DHT22;5967;48.944;9.240;2022-10-04T20:03:41;12.70;99.90
11820;DHT22;5967;48.944;9.240;2022-10-04T20:06:08;12.60;99.90
11820;DHT22;5967;48.944;9.240;2022-10-04T20:08:48;12.60;99.90
11820;DHT22;5967;48.944;9.240;2022-10-04T20:11:15;12.50;99.90
11820;DHT22;5967;48.944;9.240;2022-10-04T20:13:42;12.50;99.90
11820;DHT22;5967;48.944;9.240;2022-10-04T20:16:08;12.50;99.90
11820;DHT22;5967;48.944;9.240;2022-10-04T20:18:50;12.40;99.90
11820;DHT22;5967;48.944;9.240;2022-10-04T20:21:24;12.40;99.90
11820;DHT22;5967;48.944;9.240;2022-10-04T20:23:51;12.40;99.90
11820;DHT22;5967;48.944;9.240;2022-10-04T20:26:40;12.30;99.90
11820;DHT22;5967;48.944;9.240;2022-10-04T20:32:01;12.20;99.90
11820;DHT22;5967;48.944;9.240;2022-10-04T20:37:01;12.10;99.90
11820;DHT22;5967;48.944;9.240;2022-10-04T20:42:36;12.10;99.90
11820;DHT22;5967;48.944;9.240;2022-10-04T20:47:52;12.00;99.90
11820;DHT22;5967;48.944;9.240;2022-10-04T20:50:39;11.90;99.90
11820;DHT22;5967;48.944;9.240;2022-10-04T20:53:26;11.90;99.90
11820;DHT22;5967;48.944;9.240;2022-10-04T20:58:58;11.80;99.90
11820;DHT22;5967;48.944;9.240;2022-10-04T21:01:34;11.80;99.90
11820;DHT22;5967;48.944;9.240;2022-10-04T21:04:28;11.80;99.90
11820;DHT22;5967;48.944;9.240;2022-10-04T21:07:08;11.70;99.90
11820;DHT22;5967;48.944;9.240;2022-10-04T21:09:38;11.70;99.90
11820;DHT22;5967;48.944;9.240;2022-10-04T21:12:05;11.70;99.90
11820;DHT22;5967;48.944;9.240;2022-10-04T21:14:34;11.60;99.90
11820;DHT22;5967;48.944;9.240;2022-10-04T21:17:02;11.60;99.90
11820;DHT22;5967;48.944;9.240;2022-10-04T21:22:04;11.50;99.90
11820;DHT22;5967;48.944;9.240;2022-10-04T21:24:38;11.50;99.90
11820;DHT22;5967;48.944;9.240;2022-10-04T21:27:09;11.50;99.90
11820;DHT22;5967;48.944;9.240;2022-10-04T21:29:36;11.50;99.90
11820;DHT22;5967;48.944;9.240;2022-10-04T21:32:02;11.40;99.90
11820;DHT22;5967;48.944;9.240;2022-10-04T21:34:28;11.50;99.90
11820;DHT22;5967;48.944;9.240;2022-10-04T21:36:53;11.40;99.90
11820;DHT22;5967;48.944;9.240;2022-10-04T21:39:19;11.40;99.90
11820;DHT22;5967;48.944;9.240;2022-10-04T21:41:45;11.40;99.90
11820;DHT22;5967;48.944;9.240;2022-10-04T21:44:11;11.40;99.90
11820;DHT22;5967;48.944;9.240;2022-10-04T21:46:37;11.40;99.90
11820;DHT22;5967;48.944;9.240;2022-10-04T21:49:03;11.30;99.90
11820;DHT22;5967;48.944;9.240;2022-10-04T21:51:29;11.30;99.90
11820;DHT22;5967;48.944;9.240;2022-10-04T21:54:02;11.30;99.90
11820;DHT22;5967;48.944;9.240;2022-10-04T21:56:27;11.20;99.90
11820;DHT22;5967;48.944;9.240;2022-10-04T21:58:53;11.30;99.90
11820;DHT22;5967;48.944;9.240;2022-10-04T22:01:18;11.20;99.90
11820;DHT22;5967;48.944;9.240;2022-10-04T22:03:44;11.20;99.90
11820;DHT22;5967;48.944;9.240;2022-10-04T22:06:10;11.20;99.90
11820;DHT22;5967;48.944;9.240;2022-10-04T22:08:35;11.20;99.90
11820;DHT22;5967;48.944;9.240;2022-10-04T22:11:01;11.10;99.90
11820;DHT22;5967;48.944;9.240;2022-10-04T22:13:26;11.10;99.90
11820;DHT22;5967;48.944;9.240;2022-10-04T22:15:52;11.10;99.90
11820;DHT22;5967;48.944;9.240;2022-10-04T22:18:18;11.10;99.90
11820;DHT22;5967;48.944;9.240;2022-10-04T22:20:46;11.10;99.90
11820;DHT22;5967;48.944;9.240;2022-10-04T22:23:20;11.00;99.90
11820;DHT22;5967;48.944;9.240;2022-10-04T22:25:46;11.00;99.90
11820;DHT22;5967;48.944;9.240;2022-10-04T22:28:35;11.00;99.90
11820;DHT22;5967;48.944;9.240;2022-10-04T22:31:13;11.00;99.90
11820;DHT22;5967;48.944;9.240;2022-10-04T22:33:41;11.00;99.90
11820;DHT22;5967;48.944;9.240;2022-10-04T22:46:49;10.90;99.90
11820;DHT22;5967;48.944;9.240;2022-10-04T22:49:24;10.90;99.90
11820;DHT22;5967;48.944;9.240;2022-10-04T22:51:58;10.80;99.90
11820;DHT22;5967;48.944;9.240;2022-10-04T22:54:30;10.80;99.90
11820;DHT22;5967;48.944;9.240;2022-10-04T22:56:56;10.80;99.90
11820;DHT22;5967;48.944;9.240;2022-10-04T22:59:34;10.80;99.90
11820;DHT22;5967;48.944;9.240;2022-10-04T23:02:08;10.70;99.90
11820;DHT22;5967;48.944;9.240;2022-10-04T23:04:35;10.70;99.90
11820;DHT22;5967;48.944;9.240;2022-10-04T23:07:01;10.70;99.90
11820;DHT22;5967;48.944;9.240;2022-10-04T23:09:26;10.70;99.90
11820;DHT22;5967;48.944;9.240;2022-10-04T23:11:52;10.70;99.90
11820;DHT22;5967;48.944;9.240;2022-10-04T23:14:17;10.60;99.90
11820;DHT22;5967;48.944;9.240;2022-10-04T23:16:44;10.60;99.90
11820;DHT22;5967;48.944;9.240;2022-10-04T23:19:17;10.60;99.90
11820;DHT22;5967;48.944;9.240;2022-10-04T23:21:47;10.60;99.90
11820;DHT22;5967;48.944;9.240;2022-10-04T23:24:18;10.60;99.90
11820;DHT22;5967;48.944;9.240;2022-10-04T23:26:52;10.60;99.90
11820;DHT22;5967;48.944;9.240;2022-10-04T23:29:24;10.50;99.90
11820;DHT22;5967;48.944;9.240;2022-10-04T23:31:50;10.60;99.90
11820;DHT22;5967;48.944;9.240;2022-10-04T23:34:26;10.50;99.90
11820;DHT22;5967;48.944;9.240;2022-10-04T23:36:53;10.50;99.90
11820;DHT22;5967;48.944;9.240;2022-10-04T23:39:26;10.60;99.90
11820;DHT22;5967;48.944;9.240;2022-10-04T23:41:54;10.60;99.90
11820;DHT22;5967;48.944;9.240;2022-10-04T23:44:33;10.60;99.90
11820;DHT22;5967;48.944;9.240;2022-10-04T23:46:59;10.60;99.90
11820;DHT22;5967;48.944;9.240;2022-10-04T23:49:26;10.60;99.90
11820;DHT22;5967;48.944;9.240;2022-10-04T23:51:56;10.60;99.90
11820;DHT22;5967;48.944;9.240;2022-10-04T23:54:23;10.60;99.90
11820;DHT22;5967;48.944;9.240;2022-10-04T23:56:50;10.60;99.90
11820;DHT22;5967;48.944;9.240;2022-10-04T23:59:19;10.60;99.90
